sensor_id;sensor_type;location;lat;lon;timestamp;temperature;humidity
46378;DHT22;32083;47.360;9.650;2023-03-16T00:01:29;3.20;99.90
46378;DHT22;32083;47.360;9.650;2023-03-16T00:04:01;3.00;99.90
46378;DHT22;32083;47.360;9.650;2023-03-16T00:06:47;3.00;99.90
46378;DHT22;32083;47.360;9.650;2023-03-16T00:09:50;3.00;99.90
46378;DHT22;32083;47.360;9.650;2023-03-16T00:12:42;3.00;99.90
46378;DHT22;32083;47.360;9.650;2023-03-16T00:15:58;2.90;99.90
46378;DHT22;32083;47.360;9.650;2023-03-16T00:19:10;2.80;99.90
46378;DHT22;32083;47.360;9.650;2023-03-16T00:22:03;2.80;99.90
46378;DHT22;32083;47.360;9.650;2023-03-16T00:24:31;2.80;99.90
46378;DHT22;32083;47.360;9.650;2023-03-16T00:26:58;2.80;99.90
46378;DHT22;32083;47.360;9.650;2023-03-16T00:29:25;2.70;99.90
46378;DHT22;32083;47.360;9.650;2023-03-16T00:32:02;2.70;99.90
46378;DHT22;32083;47.360;9.650;2023-03-16T00:35:11;2.60;99.90
46378;DHT22;32083;47.360;9.650;2023-03-16T00:40:44;2.60;99.90
46378;DHT22;32083;47.360;9.650;2023-03-16T00:43:59;2.60;99.90
46378;DHT22;32083;47.360;9.650;2023-03-16T00:46:45;2.50;99.90
46378;DHT22;32083;47.360;9.650;2023-03-16T00:50:27;2.50;99.90
46378;DHT22;32083;47.360;9.650;2023-03-16T00:58:52;2.40;99.90
46378;DHT22;32083;47.360;9.650;2023-03-16T01:04:48;2.40;99.90
46378;DHT22;32083;47.360;9.650;2023-03-16T01:07:44;2.30;99.90
46378;DHT22;32083;47.360;9.650;2023-03-16T01:16:57;2.20;99.90
46378;DHT22;32083;47.360;9.650;2023-03-16T01:23:17;2.20;99.90
46378;DHT22;32083;47.360;9.650;2023-03-16T01:29:10;2.10;99.90
46378;DHT22;32083;47.360;9.650;2023-03-16T01:32:01;2.10;99.90
46378;DHT22;32083;47.360;9.650;2023-03-16T01:34:49;2.00;99.90
46378;DHT22;32083;47.360;9.650;2023-03-16T01:37:42;1.90;99.90
46378;DHT22;32083;47.360;9.650;2023-03-16T01:40:28;1.90;99.90
46378;DHT22;32083;47.360;9.650;2023-03-16T01:52:44;1.70;99.90
46378;DHT22;32083;47.360;9.650;2023-03-16T01:58:20;1.80;99.90
46378;DHT22;32083;47.360;9.650;2023-03-16T02:13:21;1.70;99.90
46378;DHT22;32083;47.360;9.650;2023-03-16T02:16:28;1.60;99.90
46378;DHT22;32083;47.360;9.650;2023-03-16T02:22:05;1.60;99.90
46378;DHT22;32083;47.360;9.650;2023-03-16T02:25:10;1.60;99.90
46378;DHT22;32083;47.360;9.650;2023-03-16T02:31:16;1.60;99.90
46378;DHT22;32083;47.360;9.650;2023-03-16T02:34:46;1.50;99.90
46378;DHT22;32083;47.360;9.650;2023-03-16T02:37:50;1.50;99.90
46378;DHT22;32083;47.360;9.650;2023-03-16T02:43:42;1.40;99.90
46378;DHT22;32083;47.360;9.650;2023-03-16T02:50:02;1.40;99.90
46378;DHT22;32083;47.360;9.650;2023-03-16T02:53:06;1.30;99.90
46378;DHT22;32083;47.360;9.650;2023-03-16T02:55:54;1.30;99.90
46378;DHT22;32083;47.360;9.650;2023-03-16T02:58:50;1.30;99.90
46378;DHT22;32083;47.360;9.650;2023-03-16T03:01:40;1.20;99.90
46378;DHT22;32083;47.360;9.650;2023-03-16T03:04:39;1.20;99.90
46378;DHT22;32083;47.360;9.650;2023-03-16T03:08:17;1.10;99.90
46378;DHT22;32083;47.360;9.650;2023-03-16T03:11:19;1.10;99.90
46378;DHT22;32083;47.360;9.650;2023-03-16T03:14:51;1.10;99.90
46378;DHT22;32083;47.360;9.650;2023-03-16T03:18:15;1.10;99.90
46378;DHT22;32083;47.360;9.650;2023-03-16T03:21:32;1.10;99.90
46378;DHT22;32083;47.360;9.650;2023-03-16T03:27:33;1.00;99.90
46378;DHT22;32083;47.360;9.650;2023-03-16T03:33:36;1.10;99.90
46378;DHT22;32083;47.360;9.650;2023-03-16T03:42:40;1.00;99.90
46378;DHT22;32083;47.360;9.650;2023-03-16T03:55:13;0.90;99.90
46378;DHT22;32083;47.360;9.650;2023-03-16T03:57:47;0.90;99.90
46378;DHT22;32083;47.360;9.650;2023-03-16T04:00:35;0.90;99.90
46378;DHT22;32083;47.360;9.650;2023-03-16T04:04:22;0.90;99.90
46378;DHT22;32083;47.360;9.650;2023-03-16T04:16:41;0.80;99.90
46378;DHT22;32083;47.360;9.650;2023-03-16T04:19:44;0.70;99.90
46378;DHT22;32083;47.360;9.650;2023-03-16T04:31:08;0.70;99.90
46378;DHT22;32083;47.360;9.650;2023-03-16T04:34:23;0.70;99.90
46378;DHT22;32083;47.360;9.650;2023-03-16T04:37:55;0.70;99.90
46378;DHT22;32083;47.360;9.650;2023-03-16T04:41:14;0.70;99.90
46378;DHT22;32083;47.360;9.650;2023-03-16T04:47:12;0.60;99.90
46378;DHT22;32083;47.360;9.650;2023-03-16T04:50:53;0.50;99.90
46378;DHT22;32083;47.360;9.650;2023-03-16T04:54:11;0.50;99.90
46378;DHT22;32083;47.360;9.650;2023-03-16T05:00:24;0.50;99.90
46378;DHT22;32083;47.360;9.650;2023-03-16T05:03:08;0.50;99.90
46378;DHT22;32083;47.360;9.650;2023-03-16T05:05:36;0.50;99.90
46378;DHT22;32083;47.360;9.650;2023-03-16T05:08:02;0.60;99.90
46378;DHT22;32083;47.360;9.650;2023-03-16T05:10:31;0.60;99.90
46378;DHT22;32083;47.360;9.650;2023-03-16T05:12:58;0.60;99.90
46378;DHT22;32083;47.360;9.650;2023-03-16T05:15:25;0.60;99.90
46378;DHT22;32083;47.360;9.650;2023-03-16T05:17:51;0.60;99.90
46378;DHT22;32083;47.360;9.650;2023-03-16T05:20:18;0.50;99.90
46378;DHT22;32083;47.360;9.650;2023-03-16T05:22:46;0.50;99.90
46378;DHT22;32083;47.360;9.650;2023-03-16T05:25:13;0.50;99.90
46378;DHT22;32083;47.360;9.650;2023-03-16T05:27:41;0.50;99.90
46378;DHT22;32083;47.360;9.650;2023-03-16T05:30:09;0.40;99.90
46378;DHT22;32083;47.360;9.650;2023-03-16T05:32:35;0.50;99.90
46378;DHT22;32083;47.360;9.650;2023-03-16T05:35:02;0.50;99.90
46378;DHT22;32083;47.360;9.650;2023-03-16T05:37:28;0.40;99.90
46378;DHT22;32083;47.360;9.650;2023-03-16T05:39:54;0.50;99.90
46378;DHT22;32083;47.360;9.650;2023-03-16T05:42:22;0.50;99.90
46378;DHT22;32083;47.360;9.650;2023-03-16T05:44:48;0.50;99.90
46378;DHT22;32083;47.360;9.650;2023-03-16T05:47:14;0.60;99.90
46378;DHT22;32083;47.360;9.650;2023-03-16T05:49:40;0.60;99.90
46378;DHT22;32083;47.360;9.650;2023-03-16T05:52:06;0.60;99.90
46378;DHT22;32083;47.360;9.650;2023-03-16T05:54:32;0.70;99.90
46378;DHT22;32083;47.360;9.650;2023-03-16T05:56:58;0.70;99.90
46378;DHT22;32083;47.360;9.650;2023-03-16T05:59:24;0.60;99.90
46378;DHT22;32083;47.360;9.650;2023-03-16T06:01:50;0.60;99.90
46378;DHT22;32083;47.360;9.650;2023-03-16T06:04:15;0.60;99.90
46378;DHT22;32083;47.360;9.650;2023-03-16T06:06:41;0.70;99.90
46378;DHT22;32083;47.360;9.650;2023-03-16T06:09:08;0.70;99.90
46378;DHT22;32083;47.360;9.650;2023-03-16T06:11:34;0.70;99.90
46378;DHT22;32083;47.360;9.650;2023-03-16T06:14:00;0.80;99.90
46378;DHT22;32083;47.360;9.650;2023-03-16T06:16:26;0.80;99.90
46378;DHT22;32083;47.360;9.650;2023-03-16T06:18:52;0.80;99.90
46378;DHT22;32083;47.360;9.650;2023-03-16T06:21:18;0.90;99.90
46378;DHT22;32083;47.360;9.650;2023-03-16T06:23:44;0.90;99.90
46378;DHT22;32083;47.360;9.650;2023-03-16T06:26:10;0.90;99.90
46378;DHT22;32083;47.360;9.650;2023-03-16T06:28:35;0.90;99.90
46378;DHT22;32083;47.360;9.650;2023-03-16T06:31:01;0.90;99.90
46378;DHT22;32083;47.360;9.650;2023-03-16T06:33:27;0.90;99.90
46378;DHT22;32083;47.360;9.650;2023-03-16T06:35:53;0.90;99.90
46378;DHT22;32083;47.360;9.650;2023-03-16T06:38:19;1.00;99.90
46378;DHT22;32083;47.360;9.650;2023-03-16T06:40:49;1.10;99.90
46378;DHT22;32083;47.360;9.650;2023-03-16T06:43:15;1.20;99.90
46378;DHT22;32083;47.360;9.650;2023-03-16T06:45:42;1.50;99.90
46378;DHT22;32083;47.360;9.650;2023-03-16T06:48:08;1.70;99.90
46378;DHT22;32083;47.360;9.650;2023-03-16T06:50:34;1.90;99.90
46378;DHT22;32083;47.360;9.650;2023-03-16T06:53:00;2.10;99.90
46378;DHT22;32083;47.360;9.650;2023-03-16T06:55:26;2.30;99.90
46378;DHT22;32083;47.360;9.650;2023-03-16T06:57:52;2.40;99.90
46378;DHT22;32083;47.360;9.650;2023-03-16T07:00:18;2.50;99.90
46378;DHT22;32083;47.360;9.650;2023-03-16T07:02:44;2.50;99.90
46378;DHT22;32083;47.360;9.650;2023-03-16T07:05:10;2.70;99.90
46378;DHT22;32083;47.360;9.650;2023-03-16T07:07:42;2.90;99.90
46378;DHT22;32083;47.360;9.650;2023-03-16T07:10:13;2.90;99.90
46378;DHT22;32083;47.360;9.650;2023-03-16T07:12:39;3.10;99.90
46378;DHT22;32083;47.360;9.650;2023-03-16T07:15:07;3.30;99.90
46378;DHT22;32083;47.360;9.650;2023-03-16T07:17:32;3.40;99.90
46378;DHT22;32083;47.360;9.650;2023-03-16T07:19:58;3.60;99.90
46378;DHT22;32083;47.360;9.650;2023-03-16T07:22:24;3.60;99.90
46378;DHT22;32083;47.360;9.650;2023-03-16T07:24:52;3.60;99.90
46378;DHT22;32083;47.360;9.650;2023-03-16T07:27:22;3.80;99.90
46378;DHT22;32083;47.360;9.650;2023-03-16T07:29:49;4.20;99.90
46378;DHT22;32083;47.360;9.650;2023-03-16T07:32:17;4.40;99.90
46378;DHT22;32083;47.360;9.650;2023-03-16T07:34:42;4.50;99.90
46378;DHT22;32083;47.360;9.650;2023-03-16T07:37:08;4.60;99.90
46378;DHT22;32083;47.360;9.650;2023-03-16T07:39:35;4.70;99.90
46378;DHT22;32083;47.360;9.650;2023-03-16T07:42:01;4.80;99.50
46378;DHT22;32083;47.360;9.650;2023-03-16T07:44:27;4.80;99.00
46378;DHT22;32083;47.360;9.650;2023-03-16T07:46:53;4.80;99.00
46378;DHT22;32083;47.360;9.650;2023-03-16T07:49:19;4.90;98.40
46378;DHT22;32083;47.360;9.650;2023-03-16T07:51:45;4.90;97.60
46378;DHT22;32083;47.360;9.650;2023-03-16T07:54:10;5.10;98.00
46378;DHT22;32083;47.360;9.650;2023-03-16T07:56:38;5.40;99.20
46378;DHT22;32083;47.360;9.650;2023-03-16T07:59:04;5.60;99.20
46378;DHT22;32083;47.360;9.650;2023-03-16T08:01:30;5.70;98.20
46378;DHT22;32083;47.360;9.650;2023-03-16T08:03:55;5.90;98.80
46378;DHT22;32083;47.360;9.650;2023-03-16T08:06:21;6.00;98.60
46378;DHT22;32083;47.360;9.650;2023-03-16T08:08:50;6.20;98.30
46378;DHT22;32083;47.360;9.650;2023-03-16T08:11:15;6.20;97.80
46378;DHT22;32083;47.360;9.650;2023-03-16T08:13:48;6.30;96.80
46378;DHT22;32083;47.360;9.650;2023-03-16T08:16:21;6.50;96.20
46378;DHT22;32083;47.360;9.650;2023-03-16T08:18:47;6.60;95.70
46378;DHT22;32083;47.360;9.650;2023-03-16T08:21:15;6.70;95.10
46378;DHT22;32083;47.360;9.650;2023-03-16T08:23:42;6.80;94.70
46378;DHT22;32083;47.360;9.650;2023-03-16T08:26:11;6.90;95.10
46378;DHT22;32083;47.360;9.650;2023-03-16T08:28:37;6.80;92.40
46378;DHT22;32083;47.360;9.650;2023-03-16T08:31:10;6.90;92.30
46378;DHT22;32083;47.360;9.650;2023-03-16T08:33:36;7.00;94.00
46378;DHT22;32083;47.360;9.650;2023-03-16T08:36:06;7.00;93.20
46378;DHT22;32083;47.360;9.650;2023-03-16T08:38:32;7.00;94.30
46378;DHT22;32083;47.360;9.650;2023-03-16T08:40:58;7.10;92.80
46378;DHT22;32083;47.360;9.650;2023-03-16T08:43:24;7.10;93.30
46378;DHT22;32083;47.360;9.650;2023-03-16T08:45:52;7.10;91.80
46378;DHT22;32083;47.360;9.650;2023-03-16T08:48:19;7.10;89.00
46378;DHT22;32083;47.360;9.650;2023-03-16T08:50:45;7.10;93.30
46378;DHT22;32083;47.360;9.650;2023-03-16T08:53:12;7.20;88.70
46378;DHT22;32083;47.360;9.650;2023-03-16T08:55:39;7.20;89.80
46378;DHT22;32083;47.360;9.650;2023-03-16T08:58:07;7.20;88.20
46378;DHT22;32083;47.360;9.650;2023-03-16T09:00:33;7.30;89.70
46378;DHT22;32083;47.360;9.650;2023-03-16T09:02:59;7.30;84.50
46378;DHT22;32083;47.360;9.650;2023-03-16T09:05:28;7.40;88.10
46378;DHT22;32083;47.360;9.650;2023-03-16T09:07:53;7.40;89.00
46378;DHT22;32083;47.360;9.650;2023-03-16T09:10:20;7.30;90.40
46378;DHT22;32083;47.360;9.650;2023-03-16T09:12:48;7.50;91.00
46378;DHT22;32083;47.360;9.650;2023-03-16T09:15:17;7.50;90.90
46378;DHT22;32083;47.360;9.650;2023-03-16T09:17:44;7.50;92.40
46378;DHT22;32083;47.360;9.650;2023-03-16T09:20:11;7.60;90.00
46378;DHT22;32083;47.360;9.650;2023-03-16T09:22:37;7.70;90.40
46378;DHT22;32083;47.360;9.650;2023-03-16T09:25:07;7.80;87.80
46378;DHT22;32083;47.360;9.650;2023-03-16T09:27:36;7.80;88.50
46378;DHT22;32083;47.360;9.650;2023-03-16T09:30:06;7.90;83.40
46378;DHT22;32083;47.360;9.650;2023-03-16T09:32:33;7.90;79.90
46378;DHT22;32083;47.360;9.650;2023-03-16T09:34:59;7.90;81.50
46378;DHT22;32083;47.360;9.650;2023-03-16T09:37:25;7.90;85.90
46378;DHT22;32083;47.360;9.650;2023-03-16T09:39:51;8.00;86.60
46378;DHT22;32083;47.360;9.650;2023-03-16T09:42:36;7.90;83.00
46378;DHT22;32083;47.360;9.650;2023-03-16T09:45:18;7.90;83.90
46378;DHT22;32083;47.360;9.650;2023-03-16T09:47:46;7.90;83.10
46378;DHT22;32083;47.360;9.650;2023-03-16T09:50:21;8.00;78.70
46378;DHT22;32083;47.360;9.650;2023-03-16T09:53:02;8.10;82.70
46378;DHT22;32083;47.360;9.650;2023-03-16T09:55:31;8.00;75.90
46378;DHT22;32083;47.360;9.650;2023-03-16T09:57:59;8.10;77.80
46378;DHT22;32083;47.360;9.650;2023-03-16T10:00:31;8.10;72.00
46378;DHT22;32083;47.360;9.650;2023-03-16T10:05:34;8.10;72.90
46378;DHT22;32083;47.360;9.650;2023-03-16T10:08:21;8.00;71.80
46378;DHT22;32083;47.360;9.650;2023-03-16T10:13:55;8.20;73.20
46378;DHT22;32083;47.360;9.650;2023-03-16T10:16:31;8.20;67.00
46378;DHT22;32083;47.360;9.650;2023-03-16T10:21:53;8.20;68.70
46378;DHT22;32083;47.360;9.650;2023-03-16T10:24:44;8.30;69.80
46378;DHT22;32083;47.360;9.650;2023-03-16T10:27:29;8.30;67.30
46378;DHT22;32083;47.360;9.650;2023-03-16T10:29:55;8.40;66.80
46378;DHT22;32083;47.360;9.650;2023-03-16T10:32:21;8.60;68.40
46378;DHT22;32083;47.360;9.650;2023-03-16T10:35:20;8.60;65.00
46378;DHT22;32083;47.360;9.650;2023-03-16T10:37:47;8.60;67.10
46378;DHT22;32083;47.360;9.650;2023-03-16T10:40:14;8.70;69.10
46378;DHT22;32083;47.360;9.650;2023-03-16T10:42:40;8.70;66.40
46378;DHT22;32083;47.360;9.650;2023-03-16T10:45:22;8.70;67.20
46378;DHT22;32083;47.360;9.650;2023-03-16T10:47:48;8.80;67.20
46378;DHT22;32083;47.360;9.650;2023-03-16T10:50:15;8.80;64.30
46378;DHT22;32083;47.360;9.650;2023-03-16T10:52:46;8.90;68.10
46378;DHT22;32083;47.360;9.650;2023-03-16T10:55:22;9.00;63.80
46378;DHT22;32083;47.360;9.650;2023-03-16T10:57:53;8.90;62.80
46378;DHT22;32083;47.360;9.650;2023-03-16T11:02:51;9.10;64.60
46378;DHT22;32083;47.360;9.650;2023-03-16T11:05:31;9.20;60.80
46378;DHT22;32083;47.360;9.650;2023-03-16T11:10:33;9.20;62.60
46378;DHT22;32083;47.360;9.650;2023-03-16T11:18:40;9.50;60.30
46378;DHT22;32083;47.360;9.650;2023-03-16T11:24:26;9.50;61.10
46378;DHT22;32083;47.360;9.650;2023-03-16T11:26:57;9.50;60.10
46378;DHT22;32083;47.360;9.650;2023-03-16T11:29:55;9.50;61.30
46378;DHT22;32083;47.360;9.650;2023-03-16T11:32:36;9.60;60.70
46378;DHT22;32083;47.360;9.650;2023-03-16T11:35:15;9.60;60.40
46378;DHT22;32083;47.360;9.650;2023-03-16T11:57:32;9.90;58.80
46378;DHT22;32083;47.360;9.650;2023-03-16T12:08:27;10.30;59.00
46378;DHT22;32083;47.360;9.650;2023-03-16T12:11:09;10.30;60.70
46378;DHT22;32083;47.360;9.650;2023-03-16T12:13:58;10.30;62.60
46378;DHT22;32083;47.360;9.650;2023-03-16T12:16:45;10.30;57.50
46378;DHT22;32083;47.360;9.650;2023-03-16T12:23:02;10.50;57.30
46378;DHT22;32083;47.360;9.650;2023-03-16T12:25:32;10.60;56.80
46378;DHT22;32083;47.360;9.650;2023-03-16T12:28:02;10.70;56.60
46378;DHT22;32083;47.360;9.650;2023-03-16T12:36:13;10.90;56.70
46378;DHT22;32083;47.360;9.650;2023-03-16T12:39:08;11.00;61.30
46378;DHT22;32083;47.360;9.650;2023-03-16T12:44:47;11.20;56.60
46378;DHT22;32083;47.360;9.650;2023-03-16T12:50:08;11.20;56.10
46378;DHT22;32083;47.360;9.650;2023-03-16T12:52:49;11.20;59.10
46378;DHT22;32083;47.360;9.650;2023-03-16T12:55:38;11.20;56.50
46378;DHT22;32083;47.360;9.650;2023-03-16T12:58:06;11.30;54.70
46378;DHT22;32083;47.360;9.650;2023-03-16T13:00:35;11.40;54.50
46378;DHT22;32083;47.360;9.650;2023-03-16T13:03:04;11.40;54.00
46378;DHT22;32083;47.360;9.650;2023-03-16T13:05:35;11.50;55.30
46378;DHT22;32083;47.360;9.650;2023-03-16T13:08:11;11.50;56.30
46378;DHT22;32083;47.360;9.650;2023-03-16T13:10:38;11.50;56.50
46378;DHT22;32083;47.360;9.650;2023-03-16T13:13:15;11.60;54.40
46378;DHT22;32083;47.360;9.650;2023-03-16T13:15:43;11.70;57.90
46378;DHT22;32083;47.360;9.650;2023-03-16T13:21:00;11.70;54.70
46378;DHT22;32083;47.360;9.650;2023-03-16T13:23:54;11.80;56.80
46378;DHT22;32083;47.360;9.650;2023-03-16T13:28:58;11.90;60.40
46378;DHT22;32083;47.360;9.650;2023-03-16T13:31:27;11.90;60.20
46378;DHT22;32083;47.360;9.650;2023-03-16T13:33:56;12.00;62.80
46378;DHT22;32083;47.360;9.650;2023-03-16T13:36:26;12.10;60.60
46378;DHT22;32083;47.360;9.650;2023-03-16T13:39:09;12.00;58.40
46378;DHT22;32083;47.360;9.650;2023-03-16T13:41:38;12.00;59.40
46378;DHT22;32083;47.360;9.650;2023-03-16T13:44:10;12.00;60.50
46378;DHT22;32083;47.360;9.650;2023-03-16T13:46:37;12.20;59.70
46378;DHT22;32083;47.360;9.650;2023-03-16T13:49:03;12.30;60.10
46378;DHT22;32083;47.360;9.650;2023-03-16T13:51:32;12.40;62.90
46378;DHT22;32083;47.360;9.650;2023-03-16T13:54:04;12.50;61.80
46378;DHT22;32083;47.360;9.650;2023-03-16T13:56:31;12.60;58.60
46378;DHT22;32083;47.360;9.650;2023-03-16T13:58:58;12.70;59.70
46378;DHT22;32083;47.360;9.650;2023-03-16T14:01:24;12.80;58.40
46378;DHT22;32083;47.360;9.650;2023-03-16T14:03:53;12.80;58.00
46378;DHT22;32083;47.360;9.650;2023-03-16T14:06:29;13.00;59.50
46378;DHT22;32083;47.360;9.650;2023-03-16T14:08:58;13.00;58.10
46378;DHT22;32083;47.360;9.650;2023-03-16T14:11:26;13.00;60.10
46378;DHT22;32083;47.360;9.650;2023-03-16T14:13:55;12.90;56.90
46378;DHT22;32083;47.360;9.650;2023-03-16T14:16:23;12.90;56.80
46378;DHT22;32083;47.360;9.650;2023-03-16T14:18:57;13.00;58.00
46378;DHT22;32083;47.360;9.650;2023-03-16T14:21:27;13.20;59.90
46378;DHT22;32083;47.360;9.650;2023-03-16T14:23:58;13.20;57.80
46378;DHT22;32083;47.360;9.650;2023-03-16T14:26:26;13.30;57.90
46378;DHT22;32083;47.360;9.650;2023-03-16T14:29:24;13.20;56.30
46378;DHT22;32083;47.360;9.650;2023-03-16T14:31:51;13.30;57.90
46378;DHT22;32083;47.360;9.650;2023-03-16T14:34:38;13.40;59.10
46378;DHT22;32083;47.360;9.650;2023-03-16T14:37:12;13.30;59.90
46378;DHT22;32083;47.360;9.650;2023-03-16T14:39:39;13.30;60.90
46378;DHT22;32083;47.360;9.650;2023-03-16T14:45:02;13.30;59.60
46378;DHT22;32083;47.360;9.650;2023-03-16T14:47:41;13.40;60.50
46378;DHT22;32083;47.360;9.650;2023-03-16T14:50:28;13.40;60.30
46378;DHT22;32083;47.360;9.650;2023-03-16T14:52:55;13.30;60.10
46378;DHT22;32083;47.360;9.650;2023-03-16T14:55:21;13.30;60.30
46378;DHT22;32083;47.360;9.650;2023-03-16T14:57:49;13.30;60.20
46378;DHT22;32083;47.360;9.650;2023-03-16T15:00:17;13.20;60.90
46378;DHT22;32083;47.360;9.650;2023-03-16T15:02:49;13.10;60.50
46378;DHT22;32083;47.360;9.650;2023-03-16T15:05:23;13.20;60.90
46378;DHT22;32083;47.360;9.650;2023-03-16T15:07:54;13.20;61.10
46378;DHT22;32083;47.360;9.650;2023-03-16T15:10:24;13.10;61.30
46378;DHT22;32083;47.360;9.650;2023-03-16T15:12:51;13.20;62.70
46378;DHT22;32083;47.360;9.650;2023-03-16T15:15:29;13.10;62.60
46378;DHT22;32083;47.360;9.650;2023-03-16T15:17:55;13.10;62.50
46378;DHT22;32083;47.360;9.650;2023-03-16T15:20:24;13.10;63.00
46378;DHT22;32083;47.360;9.650;2023-03-16T15:22:55;13.10;61.30
46378;DHT22;32083;47.360;9.650;2023-03-16T15:25:33;13.20;62.00
46378;DHT22;32083;47.360;9.650;2023-03-16T15:30:33;13.20;63.10
46378;DHT22;32083;47.360;9.650;2023-03-16T15:32:59;13.20;63.00
46378;DHT22;32083;47.360;9.650;2023-03-16T15:35:26;13.00;62.40
46378;DHT22;32083;47.360;9.650;2023-03-16T15:37:52;13.00;61.80
46378;DHT22;32083;47.360;9.650;2023-03-16T15:40:22;12.90;61.00
46378;DHT22;32083;47.360;9.650;2023-03-16T15:42:49;12.90;62.80
46378;DHT22;32083;47.360;9.650;2023-03-16T15:45:18;12.90;63.20
46378;DHT22;32083;47.360;9.650;2023-03-16T15:47:46;12.80;62.90
46378;DHT22;32083;47.360;9.650;2023-03-16T15:50:15;12.80;65.00
46378;DHT22;32083;47.360;9.650;2023-03-16T15:52:44;12.80;66.30
46378;DHT22;32083;47.360;9.650;2023-03-16T15:55:38;12.80;68.10
46378;DHT22;32083;47.360;9.650;2023-03-16T15:58:05;12.80;67.30
46378;DHT22;32083;47.360;9.650;2023-03-16T16:00:37;12.70;67.10
46378;DHT22;32083;47.360;9.650;2023-03-16T16:03:04;12.70;67.50
46378;DHT22;32083;47.360;9.650;2023-03-16T16:05:31;12.70;67.60
46378;DHT22;32083;47.360;9.650;2023-03-16T16:07:57;12.70;68.30
46378;DHT22;32083;47.360;9.650;2023-03-16T16:10:24;12.60;68.30
46378;DHT22;32083;47.360;9.650;2023-03-16T16:12:52;12.60;68.90
46378;DHT22;32083;47.360;9.650;2023-03-16T16:15:29;12.50;68.70
46378;DHT22;32083;47.360;9.650;2023-03-16T16:17:59;12.40;66.80
46378;DHT22;32083;47.360;9.650;2023-03-16T16:20:30;12.30;67.20
46378;DHT22;32083;47.360;9.650;2023-03-16T16:22:57;12.30;68.20
46378;DHT22;32083;47.360;9.650;2023-03-16T16:25:31;12.20;69.10
46378;DHT22;32083;47.360;9.650;2023-03-16T16:27:59;12.10;67.80
46378;DHT22;32083;47.360;9.650;2023-03-16T16:30:30;12.10;69.10
46378;DHT22;32083;47.360;9.650;2023-03-16T16:32:56;12.00;67.70
46378;DHT22;32083;47.360;9.650;2023-03-16T16:35:24;12.00;68.40
46378;DHT22;32083;47.360;9.650;2023-03-16T16:37:51;11.90;67.40
46378;DHT22;32083;47.360;9.650;2023-03-16T16:40:22;11.90;67.50
46378;DHT22;32083;47.360;9.650;2023-03-16T16:42:51;11.80;66.90
46378;DHT22;32083;47.360;9.650;2023-03-16T16:45:26;11.80;66.90
46378;DHT22;32083;47.360;9.650;2023-03-16T16:47:53;11.70;65.40
46378;DHT22;32083;47.360;9.650;2023-03-16T16:50:22;11.60;65.70
46378;DHT22;32083;47.360;9.650;2023-03-16T16:52:50;11.60;65.60
46378;DHT22;32083;47.360;9.650;2023-03-16T16:55:16;11.50;65.00
46378;DHT22;32083;47.360;9.650;2023-03-16T16:57:43;11.40;64.00
46378;DHT22;32083;47.360;9.650;2023-03-16T17:00:24;11.40;64.80
46378;DHT22;32083;47.360;9.650;2023-03-16T17:02:54;11.40;65.50
46378;DHT22;32083;47.360;9.650;2023-03-16T17:05:25;11.30;65.80
46378;DHT22;32083;47.360;9.650;2023-03-16T17:07:51;11.30;66.20
46378;DHT22;32083;47.360;9.650;2023-03-16T17:10:21;11.20;66.50
46378;DHT22;32083;47.360;9.650;2023-03-16T17:12:53;11.20;66.40
46378;DHT22;32083;47.360;9.650;2023-03-16T17:17:48;11.10;65.80
46378;DHT22;32083;47.360;9.650;2023-03-16T17:20:18;11.00;66.00
46378;DHT22;32083;47.360;9.650;2023-03-16T17:22:48;10.90;66.70
46378;DHT22;32083;47.360;9.650;2023-03-16T17:25:16;10.90;66.60
46378;DHT22;32083;47.360;9.650;2023-03-16T17:27:44;10.80;66.50
46378;DHT22;32083;47.360;9.650;2023-03-16T17:32:49;10.70;66.50
46378;DHT22;32083;47.360;9.650;2023-03-16T17:35:15;10.70;67.00
46378;DHT22;32083;47.360;9.650;2023-03-16T17:40:32;10.50;69.30
46378;DHT22;32083;47.360;9.650;2023-03-16T17:46:47;10.40;70.60
46378;DHT22;32083;47.360;9.650;2023-03-16T17:50:20;10.30;72.60
46378;DHT22;32083;47.360;9.650;2023-03-16T17:53:49;10.20;75.40
46378;DHT22;32083;47.360;9.650;2023-03-16T17:56:33;10.10;78.40
46378;DHT22;32083;47.360;9.650;2023-03-16T17:59:26;10.00;78.00
46378;DHT22;32083;47.360;9.650;2023-03-16T18:01:55;9.90;79.30
46378;DHT22;32083;47.360;9.650;2023-03-16T18:04:28;9.80;79.90
46378;DHT22;32083;47.360;9.650;2023-03-16T18:06:54;9.70;79.50
46378;DHT22;32083;47.360;9.650;2023-03-16T18:09:28;9.60;79.40
46378;DHT22;32083;47.360;9.650;2023-03-16T18:11:57;9.60;79.60
46378;DHT22;32083;47.360;9.650;2023-03-16T18:14:42;9.60;79.90
46378;DHT22;32083;47.360;9.650;2023-03-16T18:17:30;9.50;78.90
46378;DHT22;32083;47.360;9.650;2023-03-16T18:20:24;9.40;79.90
46378;DHT22;32083;47.360;9.650;2023-03-16T18:23:22;9.30;81.40
46378;DHT22;32083;47.360;9.650;2023-03-16T18:25:50;9.30;81.40
46378;DHT22;32083;47.360;9.650;2023-03-16T18:28:18;9.20;82.50
46378;DHT22;32083;47.360;9.650;2023-03-16T18:30:56;9.20;83.10
46378;DHT22;32083;47.360;9.650;2023-03-16T18:33:38;9.10;84.30
46378;DHT22;32083;47.360;9.650;2023-03-16T18:36:33;9.00;83.70
46378;DHT22;32083;47.360;9.650;2023-03-16T18:39:01;8.90;85.50
46378;DHT22;32083;47.360;9.650;2023-03-16T18:41:34;8.90;86.90
46378;DHT22;32083;47.360;9.650;2023-03-16T18:44:30;8.80;86.20
46378;DHT22;32083;47.360;9.650;2023-03-16T18:47:00;8.70;87.90
46378;DHT22;32083;47.360;9.650;2023-03-16T18:49:31;8.70;89.40
46378;DHT22;32083;47.360;9.650;2023-03-16T18:52:05;8.60;90.40
46378;DHT22;32083;47.360;9.650;2023-03-16T18:57:21;8.40;91.10
46378;DHT22;32083;47.360;9.650;2023-03-16T19:03:33;8.40;91.20
46378;DHT22;32083;47.360;9.650;2023-03-16T19:08:38;8.30;93.80
46378;DHT22;32083;47.360;9.650;2023-03-16T19:11:36;8.20;94.50
46378;DHT22;32083;47.360;9.650;2023-03-16T19:14:29;8.20;94.70
46378;DHT22;32083;47.360;9.650;2023-03-16T19:17:05;8.20;94.60
46378;DHT22;32083;47.360;9.650;2023-03-16T19:19:33;8.20;95.30
46378;DHT22;32083;47.360;9.650;2023-03-16T19:22:14;8.10;95.40
46378;DHT22;32083;47.360;9.650;2023-03-16T19:24:48;8.10;94.90
46378;DHT22;32083;47.360;9.650;2023-03-16T19:27:27;8.00;95.10
46378;DHT22;32083;47.360;9.650;2023-03-16T19:30:02;8.00;95.10
46378;DHT22;32083;47.360;9.650;2023-03-16T19:32:31;7.90;95.30
46378;DHT22;32083;47.360;9.650;2023-03-16T19:34:57;7.90;95.90
46378;DHT22;32083;47.360;9.650;2023-03-16T19:37:24;7.80;96.10
46378;DHT22;32083;47.360;9.650;2023-03-16T19:39:51;7.80;96.60
46378;DHT22;32083;47.360;9.650;2023-03-16T19:42:30;7.70;96.50
46378;DHT22;32083;47.360;9.650;2023-03-16T19:45:14;7.70;97.20
46378;DHT22;32083;47.360;9.650;2023-03-16T19:47:42;7.60;96.90
46378;DHT22;32083;47.360;9.650;2023-03-16T19:50:13;7.50;97.20
46378;DHT22;32083;47.360;9.650;2023-03-16T19:52:40;7.50;96.90
46378;DHT22;32083;47.360;9.650;2023-03-16T19:55:06;7.40;97.40
46378;DHT22;32083;47.360;9.650;2023-03-16T19:57:34;7.40;97.40
46378;DHT22;32083;47.360;9.650;2023-03-16T19:59:59;7.30;97.50